Carson Valley, Nevada Weather observations

Data are for 10 minute period ending at time listed.
 Day   Time   Solar   Ave.   Ave.  Ave.  Vector  Max.   Baro.   Total    
  of    of     Rad.   Air    Rel.  Wind   Wind   Wind  Press.  Precip.   
Year   Day            Temp.  Hum.  Speed  Dir.   Gust                    
2014   (PST)  Kw/m2    F      %     mph   deg.    mph    mb.     in.     
-------------------------------------------------------------------------
 292    2:50   0.00   29.5    91    1.4   174     2.3   856.4    0.00 
 292    3:00   0.00   29.8    91    1.7   203     2.9   856.4    0.00 
 292    3:10   0.00   29.2    91    1.7   183     2.4   856.3    0.00 
 292    3:20   0.00   28.6    92    1.9   143     2.8   856.3    0.00 
 292    3:30   0.00   27.6    91    1.6   167     2.9   856.3    0.00 
 292    3:40   0.00   28.1    92    0.7   207     1.9   856.4    0.00 
 292    3:50   0.00   28.5    93    1.7   177     2.9   856.4    0.00 
 292    4:00   0.00   28.5    92    2.4   150     3.6   856.4    0.00 
 292    4:10   0.00   26.7    93    2.3   160     3.5   856.5    0.00 
 292    4:20   0.00   26.8    93    0.9   193     2.6   856.5    0.00 
 292    4:30   0.00   26.8    93    0.7   299     2.4   856.5    0.00 
 292    4:40   0.00   27.3    94    1.8   198     2.7   856.5    0.00 
 292    4:50   0.00   27.6    93    2.2   196     3.7   856.5    0.00 
 292    5:00   0.00   26.5    92    0.7   130     2.0   856.6    0.00 
 292    5:10   0.00   25.1    92    0.3   212     1.5   856.6    0.00 
 292    5:20   0.00   26.0    93    0.8   206     2.3   856.7    0.00 
 292    5:30   0.00   26.0    92    2.6   222     5.1   856.7    0.00 
 292    5:40   0.00   26.4    94    1.1   223     3.6   856.7    0.00 
 292    5:50   0.00   26.3    93    0.2   128     1.3   856.7    0.00 
 292    6:00   0.00   26.5    92    1.9    96     4.4   856.7    0.00 
 292    6:10   0.00   23.0    91    2.2    88     3.6   856.7    0.00 
 292    6:20   0.01   23.5    94    1.1   121     3.1   856.9    0.00 
 292    6:30   0.02   24.4    91    2.0   103     3.1   856.9    0.00 
 292    6:40   0.06   24.8    91    2.4   117     3.1   857.0    0.00 
 292    6:50   0.09   27.6    90    2.1   135     3.1   857.1    0.00 
 292    7:00   0.12   28.6    87    1.3   225     1.8   857.1    0.00 
 292    7:10   0.14   29.2    87    1.0   258     2.1   857.2    0.00 
 292    7:20   0.17   33.1    87    0.9   129     2.3   857.2    0.00 
 292    7:30   0.20   34.6    84    1.0   265     2.2   857.3    0.00 
 292    7:40   0.23   36.1    82    1.0   325     1.9   857.3    0.00 
 292    7:50   0.26   38.1    78    0.4   293     1.8   857.2    0.00 
 292    8:00   0.29   40.9    71    0.7   245     1.8   857.2    0.00 
 292    8:10   0.33   41.9    69    2.2   261     4.0   857.1    0.00 
 292    8:20   0.36   43.2    63    1.5   308     3.1   856.9    0.00 
 292    8:30   0.39   46.2    56    0.6   239     2.0   856.8    0.00 
 292    8:40   0.42   48.3    52    0.7   283     2.0   856.8    0.00 
 292    8:50   0.45   49.7    51    0.6   327     2.0   856.7    0.00 
 292    9:00   0.48   52.2    42    1.0    32     2.6   856.8    0.00 
 292    9:10   0.50   53.5    42    1.0   307     2.7   856.8    0.00 
 292    9:20   0.53   54.4    41    1.4   310     2.8   856.9    0.00 
 292    9:30   0.55   54.8    39    1.7   287     3.1   856.9    0.00 
 292    9:40   0.57   57.3    35    1.6    64     5.6   856.8    0.00 
 292    9:50   0.59   59.3    32    1.3    83     3.1   856.9    0.00 
 292   10:00   0.61   60.6    30    1.4    86     3.9   856.8    0.00 
 292   10:10   0.63   60.4    31    1.7   331     4.0   856.7    0.00 
 292   10:20   0.65   60.5    31    1.9   295     3.7   856.6    0.00 
 292   10:30   0.66   61.2    29    2.1   323     3.9   856.6    0.00 
 292   10:40   0.67   62.6    27    1.9   334     3.8   856.5    0.00 
 292   10:50   0.68   63.8    26    1.5   294     2.9   856.4    0.00 
 292   11:00   0.69   65.5    26    1.4   351     3.4   856.3    0.00 
 292   11:10   0.70   66.4    24    2.1   325     3.8   856.1    0.00 
 292   11:20   0.70   66.8    25    2.4   313     5.3   856.0    0.00 
 292   11:30   0.71   68.2    24    1.5   317     4.1   855.8    0.00 
 292   11:40   0.71   69.1    23    2.7   322     5.0   855.7    0.00 
 292   11:50   0.71   69.8    21    2.5    61     5.6   855.4    0.00 
 292   12:00   0.71   71.1    22    2.3   356     4.4   855.2    0.00 
 292   12:10   0.70   71.9    21    2.1   343     5.9   855.0    0.00 
 292   12:20   0.70   71.9    22    1.6   297     4.9   854.9    0.00 
 292   12:30   0.69   72.5    20    1.9   327     3.8   854.7    0.00 
 292   12:40   0.68   73.5    19    2.8   112     5.3   854.6    0.00 
 292   12:50   0.67   73.5    20    2.1   332     3.7   854.4    0.00 
 292   13:00   0.65   74.2    17    2.7   353     5.1   854.3    0.00 
 292   13:10   0.64   74.5    18    3.4     2     6.8   854.1    0.00 
 292   13:20   0.62   75.1    18    1.8    12     5.3   854.0    0.00 
 292   13:30   0.60   75.0    19    4.8   314     8.3   853.9    0.00 
 292   13:40   0.59   74.6    20    4.6   298     9.0   853.8    0.00 
 292   13:50   0.57   75.6    17    4.2   169     9.8   853.8    0.00 
 292   14:00   0.54   75.7    17    2.9   203     6.3   853.7    0.00 
 292   14:10   0.52   76.3    17    4.3   183     8.8   853.6    0.00 
 292   14:20   0.50   76.1    16    2.1   269     6.8   853.6    0.00 
 292   14:30   0.47   76.0    18    2.5   256     8.6   853.5    0.00 
 292   14:40   0.45   75.9    17    4.6   249    10.5   853.4    0.00 
 292   14:50   0.42   76.0    17    7.9   197    11.3   853.4    0.00 
 292   15:00   0.39   76.0    17    8.5   194    13.4   853.4    0.00 
 292   15:10   0.36   75.8    16    9.8   195    17.3   853.4    0.00 
 292   15:20   0.33   75.1    16   10.7   200    15.2   853.5    0.00 
 292   15:30   0.30   74.6    16   11.8   196    16.4   853.5    0.00 
 292   15:40   0.27   74.1    16    8.2   205    12.0   853.5    0.00 
 292   15:50   0.23   73.9    16   10.2   192    16.7   853.5    0.00 
 292   16:00   0.20   73.0    18    8.2   197    14.0   853.5    0.00 
 292   16:10   0.17   71.8    19    8.1   211    13.3   853.5    0.00 
 292   16:20   0.14   70.3    22    7.5   221    11.1   853.5    0.00 
 292   16:30   0.11   68.4    26    5.9   240     8.8   853.5    0.00 
 292   16:40   0.02   65.2    27    6.6   241     9.3   853.5    0.00 
 292   16:50   0.01   64.1    27    4.6   219     8.3   853.5    0.00 
 292   17:00   0.01   63.2    27    3.4   180     5.8   853.6    0.00 
 292   17:10   0.01   65.7    23    2.0   248     6.0   853.6    0.00 
 292   17:20   0.00   65.3    24    1.5   244     4.9   853.6    0.00 
 292   17:30   0.00   63.8    26    4.1   255    14.4   853.6    0.00 
 292   17:40   0.00   65.0    28    8.8   274    15.2   853.7    0.00 
 292   17:50   0.00   64.1    27    4.3   253     9.0   853.7    0.00 
 292   18:00   0.00   63.9    26    1.8    65     3.5   853.8    0.00 
 292   18:10   0.00   64.7    24    1.9   360     4.5   853.8    0.00 
 292   18:20   0.00   61.0    28    5.4    27    10.6   853.9    0.00 
 292   18:30   0.00   63.4    28    9.3   291    16.4   853.9    0.00 
 292   18:40   0.00   62.2    28    4.9   301     7.7   853.9    0.00 
 292   18:50   0.00   60.3    29    5.4    59     8.6   853.9    0.00 
 292   19:00   0.00   62.8    26    6.1    14     9.0   853.9    0.00 
 292   19:10   0.00   60.4    28    4.5    18     6.8   854.0    0.00 
 292   19:20   0.00   54.7    35    4.2   342     7.2   854.1    0.00 
 292   19:30   0.00   51.8    40    4.6   325     5.8   853.9    0.00 
 292   19:40   0.00   49.5    46    4.5   289     5.4   853.9    0.00 
 292   19:50   0.00   53.2    42    3.1   305     4.0   853.9    0.00 
 292   20:00   0.00   53.9    40    3.8   348     5.8   853.9    0.00 
 292   20:10   0.00   50.9    44    2.2    43     5.1   853.9    0.00 
 292   20:20   0.00   50.0    46    3.1   337     4.9   853.8    0.00 
 292   20:30   0.00   47.8    51    4.2   324     5.3   853.8    0.00 
 292   20:40   0.00   45.6    56    4.4   315     5.7   853.9    0.00 
 292   20:50   0.00   46.9    54    4.0   358     5.5   853.9    0.00 
 292   21:00   0.00   47.3    52    4.7   347     5.8   853.9    0.00 
 292   21:10   0.00   48.8    49    4.3     0     6.1   853.8    0.00 
 292   21:20   0.00   45.1    54    3.3   359     6.1   853.9    0.00 
 292   21:30   0.00   45.0    56    3.2   340     6.2   854.0    0.00 
 292   21:40   0.00   46.5    52    4.5   355     6.9   854.1    0.00 
 292   21:50   0.00   51.1    44    2.4    13     5.0   854.2    0.00 
 292   22:00   0.00   50.7    44    2.4   347     4.3   854.2    0.00 
 292   22:10   0.00   49.4    47    2.8    31     4.8   854.2    0.00 
 292   22:20   0.00   47.7    49    2.8    32     5.0   854.2    0.00 
 292   22:30   0.00   44.5    56    2.6   336     4.4   854.2    0.00 
 292   22:40   0.00   43.4    58    2.5   307     5.3   854.2    0.00 
 292   22:50   0.00   43.5    59    3.2   321     6.2   854.1    0.00 
 292   23:00   0.00   43.1    58    3.2   312     6.1   854.1    0.00 
 292   23:10   0.00   42.9    59    3.6   344     4.7   854.1    0.00 
 292   23:20   0.00   42.0    61    2.9   335     4.1   854.1    0.00 
 292   23:30   0.00   45.8    56    5.2   356     6.8   854.0    0.00 
 292   23:40   0.00   47.3    53    4.4   353     6.4   853.9    0.00 
 292   23:50   0.00   46.8    54    4.2    23     7.5   853.9    0.00 
 293    0:00   0.00   44.1    58    1.8   296     4.7   853.9    0.00 
 293    0:10   0.00   42.4    61    1.6   308     2.8   853.8    0.00 
 293    0:20   0.00   42.9    60    1.7   348     2.9   853.9    0.00 
 293    0:30   0.00   41.5    62    1.1    18     6.3   853.9    0.00 
 293    0:40   0.00   39.0    68    2.8   221     8.8   854.0    0.00 
 293    0:50   0.00   36.8    73    3.4   135     7.0   854.1    0.00 
 293    1:00   0.00   39.7    67    1.4    74     3.9   854.1    0.00 
 293    1:10   0.00   37.3    72    2.7   169     5.0   854.1    0.00 
 293    1:20   0.00   37.1    73    2.4   212     6.9   854.1    0.00 
 293    1:30   0.00   36.1    74    3.2   150     6.8   853.9    0.00 
 293    1:40   0.00   36.5    76    3.3   163     6.6   853.9    0.00 
 293    1:50   0.00   36.3    78    3.2   205     4.7   853.9    0.00 
 293    2:00   0.00   37.0    72    3.4   250     6.5   853.9    0.00 
 293    2:10   0.00   35.6    76    1.6   357     5.5   853.8    0.00 
 293    2:20   0.00   35.1    80    1.2   188     7.7   853.7    0.00 
 293    2:30   0.00   34.6    77    1.6   269     6.5   853.8    0.00 
 293    2:40   0.00   33.3    80    1.4    21     6.2   853.9    0.00 

Return to Carson Valley graphs page.


Western Regional Climate Center,wrcc@dri.edu